Scroll down
FLIGHT INFORMATION
Federal Express (FedEx)

FDX17

At Arrival Gate

PANC
 ZSPD
DATE: 2021-03-11
GATE: 
GATE DEPARTURE: 08:51
TAKEOFF: 09:04
DATE: 2021-03-11
GATE:  -
LANDING: 18:40
GATE ARRIVAL: 18:43
FLIGHT DATA
Crew: 
Speed: 
505 kts
Altitude: 
38,031 ft
Stage Length: 
3,736.0 nm
Block Time: 
9.8 hrs
Flight Time: 
9.6 hrs
Fuel Used: 
156,392 lb
Cleared Route: PANC NODLE NICHO NOSHO NEONN NANZA NOLTI NAYLD NULUK NANDY NATES NIKLL NYMPH NUZAN NRKEY NIPPI NOGAL NUBDA NANNO NODAN ASTER SDE ELDAK GTC TERAD HAKBA GORYU IKUJI URUSI IMIZU OYABE KMC SONBU MADUL SAKYU MIHOU HALNA STOUT DGC ISAKY FUE GOMAR AZUKI POTET ONIKU NIRAT PONIK SADLI LAMEN AKARA DUMET ZSPD
TRACK DATA
50,000 ft 1,000 kts
AIRCRAFT INFO AND CUMULATIVE STATS
Aircraft Type: 
B77LF
Registration: 
SELCAL: 
FLAP
MSN/LN: 
37723 / 848
Total Flights: 
2
Total Block Time: 
11.6 hrs
Total Flight Time: 
11.2 hrs
Total Fuel Used: 
184,093 lb
DATALINK LOG | Newest first | Current as of: 2022-10-04 20:56:47
LABEL SEQUENCE CONTENT Dn/Up
QD595118:43 38.3▼ Dn
QC564918:40▼ Dn
UM205641CLEARED TO FL 380▲ Up
DM65631REQUEST FL 380▼ Dn
UM205123CLIMB TO 360▲ Up
UM134433AT 51 PAST THE HOUR EXPECT CLIMB TO 360▲ Up
DM67H4423WHEN CAN WE EXPECT CLIMB TO FL 360▼ Dn
UM0 UM193827UNABLE. MAINTAIN ASSIGNED ALTITUDE▲ Up
DM63817REQUEST FL 360▼ Dn
UM203831CLEARED TO FL 340▲ Up
DM63821REQUEST FL 340▼ Dn
QB210809:04▼ Dn
QA085708:51 194.9▼ Dn
A34848CLEARED TO ZSPD VIA NODLE R220 NICHO R220 NODAN R217 ASTER Y514 SDE Y512 GTC Y45 MIHOU Y14 DGC Y28 ISAKY Y60 FUE A593 LAMEN A593 DUMET . SQUAWK 3224.▲ Up
2U4846PANC 111253Z 36009G18KT 4SM -SN BLSN OVC023 M07/M14 A2972 RMK AO2 SNB15 SLP066 P0000 T10721144▲ Up
2U4845ZSPD 111330Z 27005MPS 5000 BR BKN012 OVC033 12/10 Q1020 NOSIG▲ Up
2U4845RJBB 111330Z 06004KT 9999 FEW030 BKN/// 09/06 Q1025 NOSIG▲ Up
2S4845PANC ZSPD RJBB▼ Dn
B34838PANC ZSPD FDX17 N852FD ▼ Dn
Q04637[LINK ACK]▲ Up
Q04637[LINK TEST]▼ Dn


AIRCRAFT HISTORY
FLIGHT DATE FLIGHT NO. ORIGIN DESTINATION CLEARED ROUTE BLOCK TIME FLIGHT TIME FUEL USED PILOT
2022-05-28FDX9012ZSPD RJBB ZSPD LAMEN SADLI IKEDO ELGEP BEDAR BIGIT ISPIT FUE EKABU PIPED RISBI SALTY RANDY BERTH RJBB1.8 hrs1.6 hrs27,701 lbAllan Burek
2021-03-11FDX17PANC ZSPD PANC NODLE NICHO NOSHO NEONN NANZA NOLTI NAYLD NULUK NANDY NATES NIKLL NYMPH NUZAN NRKEY NIPPI NOGAL NUBDA NANNO NODAN ASTER SDE ELDAK GTC TERAD HAKBA GORYU IKUJI URUSI IMIZU OYABE KMC SONBU MADUL SAKYU MIHOU HALNA STOUT DGC ISAKY FUE GOMAR AZUKI POTET ONIKU NIRAT PONIK SADLI LAMEN AKARA DUMET ZSPD9.8 hrs9.6 hrs156,392 lbAllan Burek